Portada
METAR-TAF:

METAR-TAF

Aeroports :

Sainte-Marie, Madagascar

latitud: 17-05S, longitud: 049-49E, altitud: 2 m

Observació

L'informe es va fer fa 3 hores i 49 minuts, a les 06:00 UTC
Vent 4 kt del Oest/Nord-Oest
Temperatura 26°C
Humitat 84%
Pressió 1017 hPa
Visibilitat 10 km o més
Cel ennuvolat a una alçada de 1700 ft
xàfecs en les proximitats

METAR: FMMS 230600Z 29004KT 9999 VCSH BKN017 26/23 Q1017

Hora: 12:49 (09:49 UTC)

Pronòstic

L'informe es va fer fa 4 hores i 49 minuts, a les 05:00 UTC
Pronòstic vàlid del 23 a les 06 UTC al 24 a les 06 UTC
Vent 4 kt amb direcció variable
Visibilitat 10 km o més
Núvols disperses a una alçada de 1700 ft

TAF: FMMS 230500Z 2306/2406 VRB04KT 9999 SCT017

Observacions i pronòstics meteorològics de més de 4000 aeroports (METAR i TAF).

Les estacions disponibles són els punts grocs i vermells al mapa.

Posi el ratolí al punt desitjat per veure el nom de l'estació.

Feu clic per veure les observacions i els pronòstics meteorològics.

Per canviar el mapa: feu clic els botons verds amb una creu de color negre per apropar; al botó verd amb un guió per allunyar la imatge; o en les fletxes verdes per a mapes adjacents.


METAR-TAF: